createdAt,value
2023-01-20T00:01:43.192Z,99553.13
2023-01-20T00:04:10.795Z,99549.41
2023-01-20T00:06:38.333Z,99566.16
2023-01-20T00:09:06.353Z,99558.38
2023-01-20T00:11:34.160Z,99561.94
2023-01-20T00:14:03.144Z,99560.19
2023-01-20T00:16:31.950Z,99573.06
2023-01-20T00:19:01.011Z,99560.75
2023-01-20T00:21:29.038Z,99570.53
2023-01-20T00:23:56.886Z,99565.03
2023-01-20T00:26:25.591Z,99572.84
2023-01-20T00:28:54.923Z,99574.53
2023-01-20T00:31:25.244Z,99580.81
2023-01-20T00:33:53.807Z,99586.31
2023-01-20T00:36:23.881Z,99583.59
2023-01-20T00:38:51.484Z,99591.59
2023-01-20T00:41:19.227Z,99592.28
2023-01-20T00:43:46.874Z,99598.66
2023-01-20T00:46:14.509Z,99595.66
2023-01-20T00:48:42.196Z,99607.56
2023-01-20T00:51:10.381Z,99602.63
2023-01-20T00:53:39.284Z,99607.41
2023-01-20T00:56:07.440Z,99604.75
2023-01-20T00:58:34.953Z,99614.34
2023-01-20T01:01:02.500Z,99613.72
2023-01-20T01:03:30.345Z,99614.59
2023-01-20T01:06:07.058Z,99616.97
2023-01-20T01:08:34.650Z,99620.28
2023-01-20T01:11:04.026Z,99621.81
2023-01-20T01:13:32.183Z,99625.78
2023-01-20T01:15:59.812Z,99621.16
2023-01-20T01:18:27.334Z,99625.97
2023-01-20T01:20:54.795Z,99633.13
2023-01-20T01:23:22.391Z,99626.84
2023-01-20T01:25:49.850Z,99633.41
2023-01-20T01:28:18.659Z,99631.56
2023-01-20T01:30:46.274Z,99639.22
2023-01-20T01:33:13.738Z,99639.22
2023-01-20T01:35:42.063Z,99646.66
2023-01-20T01:38:09.583Z,99655.19
2023-01-20T01:40:37.032Z,99643.81
2023-01-20T01:43:04.543Z,99645.94
2023-01-20T01:45:34.629Z,99645.81
2023-01-20T01:48:05.361Z,99646.28
2023-01-20T01:50:38.644Z,99646.31
2023-01-20T01:53:05.982Z,99642.34
2023-01-20T01:55:36.006Z,99644.28
2023-01-20T01:58:04.086Z,99639.03
2023-01-20T02:00:31.589Z,99650.66
2023-01-20T02:03:00.499Z,99655.09
2023-01-20T02:05:29.561Z,99651.56
2023-01-20T02:07:58.997Z,99661.25
2023-01-20T02:10:26.567Z,99653.06
2023-01-20T02:12:54.313Z,99661.88
2023-01-20T02:15:28.411Z,99664.47
2023-01-20T02:18:16.971Z,99666.09
2023-01-20T02:21:07.491Z,99669.53
2023-01-20T02:23:53.942Z,99664.25
2023-01-20T02:26:38.021Z,99673.22
2023-01-20T02:29:21.875Z,99671.81
2023-01-20T02:32:22.973Z,99668.44
2023-01-20T02:34:55.210Z,99682.19
2023-01-20T02:37:26.202Z,99678.50
2023-01-20T02:40:01.393Z,99687.41
2023-01-20T02:42:35.460Z,99689.94
2023-01-20T02:45:06.415Z,99695.13
2023-01-20T02:47:38.495Z,99696.09
2023-01-20T02:50:09.077Z,99695.16
2023-01-20T02:52:39.416Z,99697.44
2023-01-20T02:55:10.349Z,99695.63
2023-01-20T02:57:42.925Z,99700.72
2023-01-20T03:00:14.014Z,99705.28
2023-01-20T03:02:45.587Z,99697.09
2023-01-20T03:05:17.155Z,99701.75
2023-01-20T03:07:45.805Z,99700.66
2023-01-20T03:10:17.354Z,99701.78
2023-01-20T03:12:47.630Z,99710.72
2023-01-20T03:15:16.181Z,99710.16
2023-01-20T03:17:45.248Z,99709.69
2023-01-20T03:20:13.367Z,99716.06
2023-01-20T03:22:40.928Z,99715.84
2023-01-20T03:25:10.572Z,99719.25
2023-01-20T03:27:38.328Z,99720.34
2023-01-20T03:30:07.868Z,99720.47
2023-01-20T03:32:35.452Z,99722.81
2023-01-20T03:35:04.520Z,99724.06
2023-01-20T03:37:32.015Z,99732.09
2023-01-20T03:39:59.609Z,99738.03
2023-01-20T03:42:30.978Z,99730.00
2023-01-20T03:45:04.786Z,99737.69
2023-01-20T03:47:44.990Z,99737.84
2023-01-20T03:50:19.279Z,99744.34
2023-01-20T03:52:51.687Z,99751.81
2023-01-20T03:55:24.133Z,99748.75
2023-01-20T03:57:55.204Z,99753.34
2023-01-20T04:00:25.051Z,99752.78
2023-01-20T04:02:54.757Z,99750.06
2023-01-20T04:05:23.713Z,99759.16
2023-01-20T04:07:51.299Z,99764.78
2023-01-20T04:10:19.314Z,99771.81
2023-01-20T04:12:46.808Z,99773.13
2023-01-20T04:15:14.782Z,99772.63
2023-01-20T04:17:42.559Z,99774.00
2023-01-20T04:20:11.360Z,99785.91
2023-01-20T04:22:46.999Z,99789.88
2023-01-20T04:25:16.630Z,99783.50
2023-01-20T04:27:44.485Z,99787.84
2023-01-20T04:30:14.257Z,99794.84
2023-01-20T04:32:41.766Z,99785.88
2023-01-20T04:35:11.195Z,99789.94
2023-01-20T04:37:38.653Z,99798.78
2023-01-20T04:40:08.927Z,99800.38
2023-01-20T04:42:36.469Z,99806.91
2023-01-20T04:45:04.239Z,99802.97
2023-01-20T04:47:31.949Z,99805.31
2023-01-20T04:49:59.455Z,99810.31
2023-01-20T04:52:26.984Z,99813.38
2023-01-20T04:54:54.516Z,99815.69
2023-01-20T04:57:23.379Z,99812.97
2023-01-20T04:59:50.873Z,99815.94
2023-01-20T05:02:18.490Z,99817.41
2023-01-20T05:04:46.125Z,99816.31
2023-01-20T05:07:13.656Z,99822.00
2023-01-20T05:09:41.124Z,99831.41
2023-01-20T05:12:08.675Z,99830.59
2023-01-20T05:14:37.462Z,99834.16
2023-01-20T05:17:04.997Z,99822.88
2023-01-20T05:19:32.460Z,99833.38
2023-01-20T05:22:00.358Z,99839.63
2023-01-20T05:24:27.811Z,99843.13
2023-01-20T05:26:55.320Z,99839.53
2023-01-20T05:29:22.899Z,99843.56
2023-01-20T05:31:51.686Z,99853.47
2023-01-20T05:34:19.155Z,99862.22
2023-01-20T05:36:46.726Z,99856.03
2023-01-20T05:39:14.236Z,99865.75
2023-01-20T05:41:41.731Z,99865.03
2023-01-20T05:44:09.212Z,99864.31
2023-01-20T05:46:36.713Z,99867.38
2023-01-20T05:49:05.491Z,99868.09
2023-01-20T05:51:33.087Z,99861.44
2023-01-20T05:54:00.575Z,99863.44
2023-01-20T05:56:28.058Z,99867.00
2023-01-20T05:58:55.965Z,99869.47
2023-01-20T06:01:24.035Z,99874.28
2023-01-20T06:03:51.647Z,99874.94
2023-01-20T06:06:20.621Z,99875.72
2023-01-20T06:08:49.802Z,99872.22
2023-01-20T06:11:18.009Z,99883.16
2023-01-20T06:13:48.967Z,99883.41
2023-01-20T06:16:17.367Z,99882.22
2023-01-20T06:18:44.910Z,99881.19
2023-01-20T06:21:12.747Z,99889.84
2023-01-20T06:23:41.719Z,99887.84
2023-01-20T06:26:11.921Z,99887.91
2023-01-20T06:28:39.428Z,99894.16
2023-01-20T06:31:08.955Z,99899.09
2023-01-20T06:33:36.551Z,99901.91
2023-01-20T06:36:05.304Z,99904.31
2023-01-20T06:38:34.294Z,99906.00
2023-01-20T06:41:05.033Z,99913.91
2023-01-20T06:43:33.913Z,99916.19
2023-01-20T06:46:01.591Z,99923.91
2023-01-20T06:48:29.280Z,99922.81
2023-01-20T06:51:01.461Z,99927.97
2023-01-20T06:53:28.947Z,99927.63
2023-01-20T06:55:57.068Z,99933.94
2023-01-20T06:58:26.856Z,99934.56
2023-01-20T07:00:54.640Z,99938.16
2023-01-20T07:03:22.342Z,99940.91
2023-01-20T07:05:55.256Z,99949.44
2023-01-20T07:08:22.997Z,99954.22
2023-01-20T07:10:50.448Z,99951.81
2023-01-20T07:13:17.943Z,99961.00
2023-01-20T07:15:46.813Z,99966.38
2023-01-20T07:18:14.324Z,99975.69
2023-01-20T07:20:43.247Z,99982.56
2023-01-20T07:23:10.948Z,99971.16
2023-01-20T07:25:39.508Z,99981.59
2023-01-20T07:28:07.403Z,99984.72
2023-01-20T07:30:34.915Z,99982.63
2023-01-20T07:33:05.508Z,99987.47
2023-01-20T07:35:33.016Z,99989.00
2023-01-20T07:38:00.588Z,99998.63
2023-01-20T07:40:28.052Z,100001.28
2023-01-20T07:42:55.513Z,100008.16
2023-01-20T07:45:22.976Z,100002.38
2023-01-20T07:47:50.427Z,100013.97
2023-01-20T07:50:19.244Z,100004.59
2023-01-20T07:52:46.708Z,100009.97
2023-01-20T07:55:14.596Z,100007.38
2023-01-20T07:57:42.242Z,100013.03
2023-01-20T08:00:10.987Z,100018.06
2023-01-20T08:02:39.148Z,100021.19
2023-01-20T08:05:10.488Z,100024.03
2023-01-20T08:07:39.331Z,100029.31
2023-01-20T08:10:07.910Z,100032.94
2023-01-20T08:12:35.440Z,100043.53
2023-01-20T08:15:02.952Z,100039.28
2023-01-20T08:17:30.411Z,100045.53
2023-01-20T08:19:58.967Z,100049.38
2023-01-20T08:22:26.749Z,100053.81
2023-01-20T08:24:55.504Z,100049.44
2023-01-20T08:27:22.939Z,100050.88
2023-01-20T08:29:50.362Z,100055.81
2023-01-20T08:32:17.828Z,100062.00
2023-01-20T08:34:45.383Z,100059.34
2023-01-20T08:37:12.906Z,100061.63
2023-01-20T08:39:40.367Z,100071.44
2023-01-20T08:42:09.165Z,100076.91
2023-01-20T08:44:36.627Z,100073.50
2023-01-20T08:47:04.462Z,100082.66
2023-01-20T08:49:32.217Z,100076.78
2023-01-20T08:51:59.712Z,100084.78
2023-01-20T08:54:29.313Z,100084.28
2023-01-20T08:56:56.808Z,100086.94
2023-01-20T08:59:25.576Z,100081.69
2023-01-20T09:01:53.041Z,100089.88
2023-01-20T09:04:20.494Z,100094.81
2023-01-20T09:06:50.194Z,100092.56
2023-01-20T09:09:19.320Z,100098.03
2023-01-20T09:11:51.151Z,100103.69
2023-01-20T09:14:19.089Z,100100.25
2023-01-20T09:16:48.471Z,100110.69
2023-01-20T09:19:16.011Z,100109.38
2023-01-20T09:21:43.619Z,100118.34
2023-01-20T09:24:17.688Z,100118.34
2023-01-20T09:26:45.317Z,100119.25
2023-01-20T09:29:15.346Z,100118.28
2023-01-20T09:31:45.238Z,100126.53
2023-01-20T09:34:19.057Z,100131.38
2023-01-20T09:36:46.918Z,100131.91
2023-01-20T09:39:32.173Z,100140.69
2023-01-20T09:42:22.423Z,100137.91
2023-01-20T09:44:53.395Z,100133.75
2023-01-20T09:47:31.369Z,100138.03
2023-01-20T09:50:27.620Z,100137.13
2023-01-20T09:53:04.748Z,100138.25
2023-01-20T09:55:40.685Z,100144.50
2023-01-20T09:58:13.381Z,100137.91
2023-01-20T10:00:42.314Z,100144.00
2023-01-20T10:03:14.588Z,100142.41
2023-01-20T10:05:43.946Z,100145.81
2023-01-20T10:08:14.745Z,100150.50
2023-01-20T10:10:48.626Z,100158.22
2023-01-20T10:13:20.268Z,100160.22
2023-01-20T10:15:50.071Z,100158.47
2023-01-20T10:18:18.922Z,100163.78
2023-01-20T10:20:50.121Z,100172.41
2023-01-20T10:23:21.459Z,100169.94
2023-01-20T10:25:52.452Z,100170.16
2023-01-20T10:28:24.683Z,100172.13
2023-01-20T10:30:52.318Z,100170.59
2023-01-20T10:33:22.178Z,100175.09
2023-01-20T10:35:52.860Z,100172.00
2023-01-20T10:38:23.857Z,100169.72
2023-01-20T10:40:54.932Z,100172.38
2023-01-20T10:43:22.561Z,100179.41
2023-01-20T10:46:18.542Z,100180.53
2023-01-20T10:49:00.445Z,100177.97
2023-01-20T10:51:34.323Z,100175.47
2023-01-20T10:54:10.566Z,100180.59
2023-01-20T10:56:43.747Z,100178.53
2023-01-20T10:59:15.342Z,100188.81
2023-01-20T11:01:44.278Z,100190.19
2023-01-20T11:04:18.355Z,100180.84
2023-01-20T11:06:50.308Z,100189.59
2023-01-20T11:09:21.855Z,100197.50
2023-01-20T11:11:49.491Z,100203.91
2023-01-20T11:14:17.076Z,100197.47
2023-01-20T11:16:48.087Z,100195.28
2023-01-20T11:19:15.836Z,100202.00
2023-01-20T11:21:43.311Z,100205.47
2023-01-20T11:27:12.053Z,100208.31
2023-01-20T11:29:42.181Z,100210.22
2023-01-20T11:32:25.839Z,100219.91
2023-01-20T11:34:53.959Z,100216.44
2023-01-20T11:37:22.576Z,100216.53
2023-01-20T11:40:00.237Z,100220.13
2023-01-20T11:42:30.685Z,100221.34
2023-01-20T11:45:15.290Z,100221.34
2023-01-20T11:47:47.064Z,100217.78
2023-01-20T11:50:31.130Z,100215.44
2023-01-20T11:53:20.139Z,100219.94
2023-01-20T11:55:53.853Z,100218.94
2023-01-20T11:58:24.451Z,100216.69
2023-01-20T12:00:54.228Z,100215.56
2023-01-20T12:03:39.708Z,100218.44
2023-01-20T12:06:13.392Z,100215.91
2023-01-20T12:08:46.770Z,100225.97
2023-01-20T12:11:16.126Z,100233.22
2023-01-20T12:14:07.372Z,100220.31
2023-01-20T12:16:35.640Z,100226.34
2023-01-20T12:19:05.869Z,100235.44
2023-01-20T12:21:36.753Z,100228.22
2023-01-20T12:24:10.705Z,100235.09
2023-01-20T12:26:38.252Z,100231.63
2023-01-20T12:29:12.943Z,100240.56
2023-01-20T12:31:40.592Z,100239.31
2023-01-20T12:34:12.272Z,100235.06
2023-01-20T12:37:03.302Z,100236.41
2023-01-20T12:39:44.274Z,100240.47
2023-01-20T12:42:24.008Z,100243.97
2023-01-20T12:44:54.941Z,100239.75
2023-01-20T12:47:35.443Z,100235.53
2023-01-20T12:50:15.147Z,100248.22
2023-01-20T12:52:52.136Z,100254.81
2023-01-20T12:55:32.844Z,100249.34
2023-01-20T12:58:09.146Z,100255.78
2023-01-20T13:01:04.621Z,100260.25
2023-01-20T13:03:56.615Z,100259.56
2023-01-20T13:06:44.517Z,100260.38
2023-01-20T13:09:25.684Z,100255.19
2023-01-20T13:12:03.122Z,100265.88
2023-01-20T13:14:39.221Z,100265.44
2023-01-20T13:17:16.730Z,100261.50
2023-01-20T13:19:47.963Z,100270.03
2023-01-20T13:22:18.111Z,100266.81
2023-01-20T13:24:47.522Z,100273.94
2023-01-20T13:27:16.137Z,100276.75
2023-01-20T13:29:53.626Z,100278.16
2023-01-20T13:32:34.373Z,100281.72
2023-01-20T13:35:02.971Z,100281.22
2023-01-20T13:37:33.405Z,100284.03
2023-01-20T13:40:01.151Z,100291.72
2023-01-20T13:42:31.236Z,100291.44
2023-01-20T13:45:17.664Z,100298.81
2023-01-20T13:47:57.368Z,100300.94
2023-01-20T13:50:27.355Z,100306.00
2023-01-20T13:53:16.420Z,100306.75
2023-01-20T13:56:00.477Z,100311.38
2023-01-20T13:58:29.678Z,100318.31
2023-01-20T14:00:58.694Z,100323.63
2023-01-20T14:03:30.011Z,100326.50
2023-01-20T14:06:00.578Z,100331.56
2023-01-20T14:08:30.557Z,100330.38
2023-01-20T14:11:08.831Z,100328.66
2023-01-20T14:13:36.335Z,100338.97
2023-01-20T14:16:03.903Z,100336.16
2023-01-20T14:18:32.892Z,100340.78
2023-01-20T14:21:03.905Z,100342.84
2023-01-20T14:23:35.184Z,100342.84
2023-01-20T14:26:05.678Z,100353.44
2023-01-20T14:28:35.462Z,100354.16
2023-01-20T14:31:13.834Z,100354.56
2023-01-20T14:33:47.075Z,100365.88
2023-01-20T14:36:18.720Z,100360.56
2023-01-20T14:38:57.286Z,100371.13
2023-01-20T14:41:30.826Z,100371.91
2023-01-20T14:43:58.839Z,100364.34
2023-01-20T14:46:27.558Z,100376.19
2023-01-20T14:48:57.123Z,100379.13
2023-01-20T14:51:24.761Z,100386.78
2023-01-20T14:54:44.903Z,100393.50
2023-01-20T14:57:20.011Z,100400.69
2023-01-20T14:59:47.528Z,100396.66
2023-01-20T15:02:20.577Z,100404.13
2023-01-20T15:04:49.264Z,100410.28
2023-01-20T15:07:19.481Z,100412.22
2023-01-20T15:09:52.724Z,100417.84
2023-01-20T15:12:40.350Z,100421.56
2023-01-20T15:15:14.825Z,100427.28
2023-01-20T15:18:15.886Z,100430.78
2023-01-20T15:20:46.791Z,100433.19
2023-01-20T15:23:31.295Z,100434.06
2023-01-20T15:26:08.489Z,100439.56
2023-01-20T15:28:38.732Z,100442.91
2023-01-20T15:31:06.448Z,100448.56
2023-01-20T15:33:33.954Z,100453.63
2023-01-20T15:36:02.745Z,100456.88
2023-01-20T15:38:33.016Z,100468.16
2023-01-20T15:41:00.495Z,100478.66
2023-01-20T15:43:28.011Z,100477.34
2023-01-20T15:45:55.466Z,100491.38
2023-01-20T15:48:24.374Z,100486.69
2023-01-20T15:50:51.948Z,100490.13
2023-01-20T15:53:20.735Z,100498.88
2023-01-20T15:55:51.716Z,100500.56
2023-01-20T15:58:25.337Z,100501.69
2023-01-20T16:00:53.283Z,100507.19
2023-01-20T16:03:20.785Z,100508.44
2023-01-20T16:05:49.439Z,100511.75
2023-01-20T16:08:18.031Z,100520.59
2023-01-20T16:10:46.930Z,100522.22
2023-01-20T16:13:14.890Z,100525.28
2023-01-20T16:15:43.410Z,100536.44
2023-01-20T16:18:15.458Z,100530.53
2023-01-20T16:20:43.895Z,100538.00
2023-01-20T16:23:11.863Z,100544.69
2023-01-20T16:25:40.038Z,100550.75
2023-01-20T16:28:15.544Z,100543.97
2023-01-20T16:30:43.513Z,100549.38
2023-01-20T16:33:18.935Z,100546.41
2023-01-20T16:35:46.681Z,100554.66
2023-01-20T16:38:15.597Z,100566.47
2023-01-20T16:40:47.537Z,100565.00
2023-01-20T16:43:17.512Z,100572.13
2023-01-20T16:45:45.398Z,100570.13
2023-01-20T16:48:12.985Z,100572.50
2023-01-20T16:50:40.472Z,100568.25
2023-01-20T16:53:07.950Z,100590.38
2023-01-20T16:55:35.436Z,100588.81
2023-01-20T16:58:03.012Z,100594.47
2023-01-20T17:00:31.809Z,100602.34
2023-01-20T17:02:59.292Z,100606.34
2023-01-20T17:05:28.386Z,100611.59
2023-01-20T17:07:57.614Z,100612.53
2023-01-20T17:10:26.291Z,100612.69
2023-01-20T17:12:54.357Z,100617.13
2023-01-20T17:15:22.400Z,100623.19
2023-01-20T17:17:51.905Z,100619.22
2023-01-20T17:20:19.852Z,100623.53
2023-01-20T17:22:47.775Z,100621.69
2023-01-20T17:25:17.935Z,100626.28
2023-01-20T17:27:45.844Z,100628.72
2023-01-20T17:30:14.152Z,100631.63
2023-01-20T17:32:42.190Z,100646.56
2023-01-20T17:35:11.421Z,100640.00
2023-01-20T17:37:38.934Z,100641.97
2023-01-20T17:40:07.474Z,100648.97
2023-01-20T17:42:34.946Z,100656.50
2023-01-20T17:45:06.386Z,100663.13
2023-01-20T17:47:33.865Z,100666.25
2023-01-20T17:50:01.354Z,100665.19
2023-01-20T17:52:30.230Z,100668.22
2023-01-20T17:54:57.724Z,100683.47
2023-01-20T17:57:27.015Z,100679.34
2023-01-20T17:59:54.703Z,100687.22
2023-01-20T18:02:22.397Z,100694.34
2023-01-20T18:04:49.932Z,100692.59
2023-01-20T18:07:17.660Z,100698.97
2023-01-20T18:09:46.433Z,100710.34
2023-01-20T18:12:14.399Z,100700.63
2023-01-20T18:14:41.881Z,100708.97
2023-01-20T18:17:09.406Z,100718.91
2023-01-20T18:19:36.905Z,100713.47
2023-01-20T18:22:06.948Z,100714.78
2023-01-20T18:24:34.595Z,100720.44
2023-01-20T18:27:03.380Z,100722.91
2023-01-20T18:29:31.189Z,100727.28
2023-01-20T18:31:59.030Z,100732.94
2023-01-20T18:34:26.543Z,100733.06
2023-01-20T18:36:54.178Z,100737.44
2023-01-20T18:39:23.593Z,100736.03
2023-01-20T18:41:52.265Z,100746.50
2023-01-20T18:44:23.099Z,100743.31
2023-01-20T18:46:50.807Z,100754.06
2023-01-20T18:49:18.584Z,100748.28
2023-01-20T18:51:46.106Z,100744.66
2023-01-20T18:54:14.811Z,100752.50
2023-01-20T18:56:42.294Z,100761.41
2023-01-20T18:59:11.069Z,100755.94
2023-01-20T19:01:41.222Z,100762.16
2023-01-20T19:04:10.723Z,100764.63
2023-01-20T19:06:41.850Z,100765.41
2023-01-20T19:09:09.893Z,100763.63
2023-01-20T19:11:39.583Z,100775.44
2023-01-20T19:14:07.903Z,100771.94
2023-01-20T19:16:37.822Z,100777.16
2023-01-20T19:19:07.892Z,100773.13
2023-01-20T19:21:36.563Z,100777.00
2023-01-20T19:24:06.074Z,100777.09
2023-01-20T19:26:35.463Z,100775.00
2023-01-20T19:29:04.913Z,100782.00
2023-01-20T19:31:34.207Z,100783.47
2023-01-20T19:34:01.995Z,100789.31
2023-01-20T19:36:30.805Z,100784.53
2023-01-20T19:39:00.141Z,100788.22
2023-01-20T19:41:29.215Z,100791.88
2023-01-20T19:43:57.978Z,100786.50
2023-01-20T19:46:27.221Z,100794.66
2023-01-20T19:48:56.486Z,100799.38
2023-01-20T19:51:24.456Z,100807.09
2023-01-20T19:53:57.802Z,100800.81
2023-01-20T19:56:26.525Z,100807.78
2023-01-20T19:58:55.255Z,100816.25
2023-01-20T20:01:24.850Z,100826.44
2023-01-20T20:03:53.802Z,100826.00
2023-01-20T20:06:24.101Z,100830.47
2023-01-20T20:08:52.310Z,100836.63
2023-01-20T20:11:21.128Z,100835.84
2023-01-20T20:13:48.924Z,100841.28
2023-01-20T20:16:16.570Z,100841.19
2023-01-20T20:18:44.181Z,100840.72
2023-01-20T20:21:11.846Z,100845.09
2023-01-20T20:23:39.331Z,100850.66
2023-01-20T20:26:06.915Z,100851.72
2023-01-20T20:28:35.882Z,100856.59
2023-01-20T20:31:05.991Z,100863.28
2023-01-20T20:33:34.230Z,100862.72
2023-01-20T20:36:06.560Z,100863.78
2023-01-20T20:38:36.544Z,100864.94
2023-01-20T20:41:04.774Z,100873.38
2023-01-20T20:43:32.317Z,100870.19
2023-01-20T20:46:01.813Z,100875.47
2023-01-20T20:48:29.801Z,100876.38
2023-01-20T20:50:57.445Z,100880.28
2023-01-20T20:53:25.047Z,100890.31
2023-01-20T20:55:55.280Z,100893.31
2023-01-20T20:58:23.325Z,100896.31
2023-01-20T21:00:51.746Z,100897.50
2023-01-20T21:03:20.534Z,100902.84
2023-01-20T21:05:49.407Z,100902.06
2023-01-20T21:08:17.187Z,100905.03
2023-01-20T21:10:44.666Z,100900.75
2023-01-20T21:13:12.231Z,100908.84
2023-01-20T21:15:39.760Z,100909.28
2023-01-20T21:18:07.481Z,100909.66
2023-01-20T21:20:36.318Z,100919.00
2023-01-20T21:23:04.518Z,100917.78
2023-01-20T21:25:32.863Z,100924.03
2023-01-20T21:28:00.369Z,100920.78
2023-01-20T21:30:27.939Z,100918.69
2023-01-20T21:32:56.548Z,100931.91
2023-01-20T21:35:24.160Z,100932.78
2023-01-20T21:37:53.210Z,100937.56
2023-01-20T21:40:20.803Z,100937.38
2023-01-20T21:42:49.838Z,100939.50
2023-01-20T21:45:16.763Z,100930.75
2023-01-20T21:47:44.235Z,100942.81
2023-01-20T21:50:29.735Z,100946.03
2023-01-20T21:52:58.822Z,100956.28
2023-01-20T21:55:26.274Z,100956.59
2023-01-20T21:57:53.816Z,100956.06
2023-01-20T22:00:22.003Z,100963.34
2023-01-20T22:02:49.773Z,100963.06
2023-01-20T22:05:18.282Z,100966.44
2023-01-20T22:07:47.795Z,100971.75
2023-01-20T22:10:17.534Z,100968.72
2023-01-20T22:12:45.399Z,100972.25
2023-01-20T22:15:13.470Z,100970.78
2023-01-20T22:17:41.368Z,100974.63
2023-01-20T22:20:10.671Z,100972.81
2023-01-20T22:22:38.411Z,100979.72
2023-01-20T22:25:07.370Z,100974.25
2023-01-20T22:27:36.355Z,100979.88
2023-01-20T22:30:04.174Z,100982.19
2023-01-20T22:32:31.880Z,100983.69
2023-01-20T22:34:59.637Z,100989.91
2023-01-20T22:37:27.088Z,100992.25
2023-01-20T22:39:54.589Z,100992.59
2023-01-20T22:42:22.040Z,101001.81
2023-01-20T22:44:50.926Z,100996.31
2023-01-20T22:47:18.395Z,101008.97
2023-01-20T22:49:45.851Z,101001.84
2023-01-20T22:52:13.529Z,101005.34
2023-01-20T22:54:40.967Z,101007.66
2023-01-20T22:57:08.428Z,101009.03
2023-01-20T22:59:36.475Z,101014.19
2023-01-20T23:02:05.544Z,101016.13
2023-01-20T23:04:33.136Z,101007.06
2023-01-20T23:07:00.793Z,101008.88
2023-01-20T23:09:28.535Z,101009.78
2023-01-20T23:11:56.012Z,101015.06
2023-01-20T23:14:51.797Z,101020.38
2023-01-20T23:17:20.592Z,101021.78
2023-01-20T23:19:48.044Z,101020.78
2023-01-20T23:22:15.550Z,101031.19
2023-01-20T23:24:43.032Z,101036.69
2023-01-20T23:27:10.655Z,101036.38
2023-01-20T23:29:38.309Z,101037.66
2023-01-20T23:32:06.382Z,101039.63
2023-01-20T23:34:35.173Z,101042.09
2023-01-20T23:37:02.821Z,101040.19
2023-01-20T23:39:30.303Z,101053.19
2023-01-20T23:41:57.887Z,101052.13
2023-01-20T23:44:25.491Z,101058.59
2023-01-20T23:46:53.195Z,101058.66
2023-01-20T23:49:22.615Z,101064.03
2023-01-20T23:51:51.691Z,101073.34
2023-01-20T23:54:19.303Z,101071.88
2023-01-20T23:56:47.003Z,101070.69
2023-01-20T23:59:14.587Z,101064.31
